sensor_id;sensor_type;location;lat;lon;timestamp;temperature;humidity
16838;DHT22;19510;54.486;9.046;2023-02-26T07:07:24;-0.60;99.90
16838;DHT22;19510;54.486;9.046;2023-02-26T07:16:33;-0.50;99.90
16838;DHT22;19510;54.486;9.046;2023-02-26T07:18:59;-0.50;99.90
16838;DHT22;19510;54.486;9.046;2023-02-26T07:21:25;-0.40;99.90
16838;DHT22;19510;54.486;9.046;2023-02-26T07:23:50;-0.40;99.90
16838;DHT22;19510;54.486;9.046;2023-02-26T07:26:16;-0.30;99.90
16838;DHT22;19510;54.486;9.046;2023-02-26T07:28:42;-0.30;99.90
16838;DHT22;19510;54.486;9.046;2023-02-26T07:31:08;-0.20;99.90
16838;DHT22;19510;54.486;9.046;2023-02-26T07:33:33;-0.10;99.90
16838;DHT22;19510;54.486;9.046;2023-02-26T07:36:00;-0.10;99.90
16838;DHT22;19510;54.486;9.046;2023-02-26T07:38:26;0.00;99.90
16838;DHT22;19510;54.486;9.046;2023-02-26T07:40:54;0.10;99.90
16838;DHT22;19510;54.486;9.046;2023-02-26T07:43:22;0.10;99.90
16838;DHT22;19510;54.486;9.046;2023-02-26T07:45:51;0.20;99.90
16838;DHT22;19510;54.486;9.046;2023-02-26T07:51:39;0.30;99.90
16838;DHT22;19510;54.486;9.046;2023-02-26T07:54:05;0.40;99.90
16838;DHT22;19510;54.486;9.046;2023-02-26T07:56:31;0.50;99.90
16838;DHT22;19510;54.486;9.046;2023-02-26T07:58:56;0.60;99.90
16838;DHT22;19510;54.486;9.046;2023-02-26T08:01:22;0.70;99.90
16838;DHT22;19510;54.486;9.046;2023-02-26T08:03:48;0.80;99.90
16838;DHT22;19510;54.486;9.046;2023-02-26T08:06:17;0.80;99.90
16838;DHT22;19510;54.486;9.046;2023-02-26T08:08:42;0.90;99.90
16838;DHT22;19510;54.486;9.046;2023-02-26T08:11:08;0.90;99.90
16838;DHT22;19510;54.486;9.046;2023-02-26T08:13:34;1.00;99.90
16838;DHT22;19510;54.486;9.046;2023-02-26T08:16:00;1.10;99.90
16838;DHT22;19510;54.486;9.046;2023-02-26T08:18:25;1.10;99.90
16838;DHT22;19510;54.486;9.046;2023-02-26T08:20:51;1.20;99.90
16838;DHT22;19510;54.486;9.046;2023-02-26T08:23:18;1.20;99.90
16838;DHT22;19510;54.486;9.046;2023-02-26T08:25:43;1.20;99.90
16838;DHT22;19510;54.486;9.046;2023-02-26T08:28:12;1.30;99.90
16838;DHT22;19510;54.486;9.046;2023-02-26T08:30:37;1.30;99.90
16838;DHT22;19510;54.486;9.046;2023-02-26T08:33:03;1.40;99.90
16838;DHT22;19510;54.486;9.046;2023-02-26T08:35:34;1.40;99.90
16838;DHT22;19510;54.486;9.046;2023-02-26T08:38:02;1.50;99.90
16838;DHT22;19510;54.486;9.046;2023-02-26T08:40:28;1.60;99.90
16838;DHT22;19510;54.486;9.046;2023-02-26T08:42:53;1.70;99.90
16838;DHT22;19510;54.486;9.046;2023-02-26T08:45:19;1.80;99.90
16838;DHT22;19510;54.486;9.046;2023-02-26T08:47:45;1.80;99.90
16838;DHT22;19510;54.486;9.046;2023-02-26T08:50:11;1.90;99.90
16838;DHT22;19510;54.486;9.046;2023-02-26T08:52:37;1.90;99.90
16838;DHT22;19510;54.486;9.046;2023-02-26T08:55:03;1.90;99.90
16838;DHT22;19510;54.486;9.046;2023-02-26T08:57:32;2.00;99.90
16838;DHT22;19510;54.486;9.046;2023-02-26T08:59:58;2.10;99.90
16838;DHT22;19510;54.486;9.046;2023-02-26T09:02:24;2.10;99.90
16838;DHT22;19510;54.486;9.046;2023-02-26T09:04:51;2.10;99.90
16838;DHT22;19510;54.486;9.046;2023-02-26T09:07:17;2.20;99.90
16838;DHT22;19510;54.486;9.046;2023-02-26T09:09:45;2.20;99.90
16838;DHT22;19510;54.486;9.046;2023-02-26T09:12:10;2.30;99.90
16838;DHT22;19510;54.486;9.046;2023-02-26T09:14:38;2.40;99.90
16838;DHT22;19510;54.486;9.046;2023-02-26T09:17:06;2.40;99.90
16838;DHT22;19510;54.486;9.046;2023-02-26T09:19:34;2.50;99.90
16838;DHT22;19510;54.486;9.046;2023-02-26T09:22:00;2.60;99.90
16838;DHT22;19510;54.486;9.046;2023-02-26T09:24:29;2.70;99.90
16838;DHT22;19510;54.486;9.046;2023-02-26T09:26:55;2.80;99.90
16838;DHT22;19510;54.486;9.046;2023-02-26T09:29:20;2.80;99.90
16838;DHT22;19510;54.486;9.046;2023-02-26T09:31:46;2.90;99.90
16838;DHT22;19510;54.486;9.046;2023-02-26T09:34:13;3.00;99.90
16838;DHT22;19510;54.486;9.046;2023-02-26T09:36:39;3.00;99.90
16838;DHT22;19510;54.486;9.046;2023-02-26T09:39:05;3.10;99.90
16838;DHT22;19510;54.486;9.046;2023-02-26T09:41:40;3.20;99.90
16838;DHT22;19510;54.486;9.046;2023-02-26T09:44:20;3.20;99.90
16838;DHT22;19510;54.486;9.046;2023-02-26T09:54:48;3.50;99.90
16838;DHT22;19510;54.486;9.046;2023-02-26T09:57:25;3.60;99.90
16838;DHT22;19510;54.486;9.046;2023-02-26T09:59:52;3.60;99.90
16838;DHT22;19510;54.486;9.046;2023-02-26T10:02:28;3.60;99.90
16838;DHT22;19510;54.486;9.046;2023-02-26T10:05:17;3.70;99.90
16838;DHT22;19510;54.486;9.046;2023-02-26T10:10:30;3.80;99.90
16838;DHT22;19510;54.486;9.046;2023-02-26T10:12:58;3.90;99.90
16838;DHT22;19510;54.486;9.046;2023-02-26T10:15:34;3.90;99.90
16838;DHT22;19510;54.486;9.046;2023-02-26T10:18:39;4.00;99.90
16838;DHT22;19510;54.486;9.046;2023-02-26T10:21:10;4.00;99.90
16838;DHT22;19510;54.486;9.046;2023-02-26T10:23:41;4.10;99.90
16838;DHT22;19510;54.486;9.046;2023-02-26T10:31:12;4.20;99.90
16838;DHT22;19510;54.486;9.046;2023-02-26T10:40:16;4.40;99.90
16838;DHT22;19510;54.486;9.046;2023-02-26T10:48:26;4.70;99.90
16838;DHT22;19510;54.486;9.046;2023-02-26T10:50:57;4.80;99.90
16838;DHT22;19510;54.486;9.046;2023-02-26T10:53:25;4.80;99.90
16838;DHT22;19510;54.486;9.046;2023-02-26T10:56:12;4.90;99.90
16838;DHT22;19510;54.486;9.046;2023-02-26T10:58:39;4.90;99.90
16838;DHT22;19510;54.486;9.046;2023-02-26T11:01:21;5.00;99.90
16838;DHT22;19510;54.486;9.046;2023-02-26T11:03:50;5.00;99.90
16838;DHT22;19510;54.486;9.046;2023-02-26T11:06:39;5.10;99.90
16838;DHT22;19510;54.486;9.046;2023-02-26T11:09:36;5.20;99.90
16838;DHT22;19510;54.486;9.046;2023-02-26T11:12:05;5.30;99.90
16838;DHT22;19510;54.486;9.046;2023-02-26T11:14:44;5.30;99.90
16838;DHT22;19510;54.486;9.046;2023-02-26T11:17:27;5.40;99.90
16838;DHT22;19510;54.486;9.046;2023-02-26T11:20:38;5.50;99.90
16838;DHT22;19510;54.486;9.046;2023-02-26T11:23:05;5.60;99.90
16838;DHT22;19510;54.486;9.046;2023-02-26T11:25:33;5.80;99.90
16838;DHT22;19510;54.486;9.046;2023-02-26T11:28:29;5.80;99.90
16838;DHT22;19510;54.486;9.046;2023-02-26T11:30:52;5.90;99.90
16838;DHT22;19510;54.486;9.046;2023-02-26T11:33:26;5.90;99.90
16838;DHT22;19510;54.486;9.046;2023-02-26T11:35:59;6.00;99.90
16838;DHT22;19510;54.486;9.046;2023-02-26T11:38:26;6.10;99.90
16838;DHT22;19510;54.486;9.046;2023-02-26T11:40:57;6.20;99.90
16838;DHT22;19510;54.486;9.046;2023-02-26T11:43:41;6.30;99.90
16838;DHT22;19510;54.486;9.046;2023-02-26T11:46:07;6.30;99.90
16838;DHT22;19510;54.486;9.046;2023-02-26T11:48:46;6.40;99.90
16838;DHT22;19510;54.486;9.046;2023-02-26T11:51:28;6.50;99.90
16838;DHT22;19510;54.486;9.046;2023-02-26T11:54:10;6.50;99.90
16838;DHT22;19510;54.486;9.046;2023-02-26T11:56:49;6.50;99.90
16838;DHT22;19510;54.486;9.046;2023-02-26T11:59:24;6.60;99.90
16838;DHT22;19510;54.486;9.046;2023-02-26T12:01:52;6.90;99.90
16838;DHT22;19510;54.486;9.046;2023-02-26T12:04:20;7.00;99.90
16838;DHT22;19510;54.486;9.046;2023-02-26T12:06:50;7.10;99.90
16838;DHT22;19510;54.486;9.046;2023-02-26T12:09:17;7.20;99.90
16838;DHT22;19510;54.486;9.046;2023-02-26T12:17:37;7.60;99.90
16838;DHT22;19510;54.486;9.046;2023-02-26T12:23:05;7.50;99.90
16838;DHT22;19510;54.486;9.046;2023-02-26T13:00:08;7.60;99.90
16838;DHT22;19510;54.486;9.046;2023-02-26T13:03:03;7.60;99.90
16838;DHT22;19510;54.486;9.046;2023-02-26T13:08:31;7.50;99.90
16838;DHT22;19510;54.486;9.046;2023-02-26T13:14:44;7.10;99.90
16838;DHT22;19510;54.486;9.046;2023-02-26T13:17:04;7.00;99.90
16838;DHT22;19510;54.486;9.046;2023-02-26T13:19:36;7.00;99.90
16838;DHT22;19510;54.486;9.046;2023-02-26T13:24:48;7.00;99.90
16838;DHT22;19510;54.486;9.046;2023-02-26T13:27:16;7.00;99.90
16838;DHT22;19510;54.486;9.046;2023-02-26T13:32:33;7.10;99.90
16838;DHT22;19510;54.486;9.046;2023-02-26T13:35:04;7.30;99.90
16838;DHT22;19510;54.486;9.046;2023-02-26T13:37:45;7.40;99.90
16838;DHT22;19510;54.486;9.046;2023-02-26T13:43:16;7.30;99.90
16838;DHT22;19510;54.486;9.046;2023-02-26T13:49:16;7.30;99.90
16838;DHT22;19510;54.486;9.046;2023-02-26T13:51:45;7.40;99.90
16838;DHT22;19510;54.486;9.046;2023-02-26T14:04:59;7.60;99.90
16838;DHT22;19510;54.486;9.046;2023-02-26T14:24:01;7.90;99.90
16838;DHT22;19510;54.486;9.046;2023-02-26T14:26:32;7.90;99.90
16838;DHT22;19510;54.486;9.046;2023-02-26T14:36:48;7.90;99.90
16838;DHT22;19510;54.486;9.046;2023-02-26T14:39:33;7.90;99.90
16838;DHT22;19510;54.486;9.046;2023-02-26T14:47:31;7.70;99.90
16838;DHT22;19510;54.486;9.046;2023-02-26T14:49:57;7.70;99.90
16838;DHT22;19510;54.486;9.046;2023-02-26T14:55:17;7.60;99.90
16838;DHT22;19510;54.486;9.046;2023-02-26T15:17:10;7.90;99.90
16838;DHT22;19510;54.486;9.046;2023-02-26T15:25:03;8.50;99.90
16838;DHT22;19510;54.486;9.046;2023-02-26T15:27:32;8.50;99.90
16838;DHT22;19510;54.486;9.046;2023-02-26T15:29:59;8.10;99.90
16838;DHT22;19510;54.486;9.046;2023-02-26T15:32:29;7.80;99.90
16838;DHT22;19510;54.486;9.046;2023-02-26T15:35:19;7.60;99.90
16838;DHT22;19510;54.486;9.046;2023-02-26T15:37:56;7.40;99.90
16838;DHT22;19510;54.486;9.046;2023-02-26T15:40:24;7.20;99.90
16838;DHT22;19510;54.486;9.046;2023-02-26T15:42:53;7.10;99.90
16838;DHT22;19510;54.486;9.046;2023-02-26T15:45:36;7.00;99.90
16838;DHT22;19510;54.486;9.046;2023-02-26T15:48:10;6.90;99.90
16838;DHT22;19510;54.486;9.046;2023-02-26T15:50:40;6.90;99.90
16838;DHT22;19510;54.486;9.046;2023-02-26T15:53:10;6.70;99.90
16838;DHT22;19510;54.486;9.046;2023-02-26T15:55:46;6.70;99.90
16838;DHT22;19510;54.486;9.046;2023-02-26T15:58:19;6.60;99.90
16838;DHT22;19510;54.486;9.046;2023-02-26T16:00:51;6.60;99.90
16838;DHT22;19510;54.486;9.046;2023-02-26T16:03:29;6.50;99.90
16838;DHT22;19510;54.486;9.046;2023-02-26T16:05:57;6.40;99.90
16838;DHT22;19510;54.486;9.046;2023-02-26T16:08:30;6.40;99.90
16838;DHT22;19510;54.486;9.046;2023-02-26T16:10:59;6.30;99.90
16838;DHT22;19510;54.486;9.046;2023-02-26T16:13:33;6.30;99.90
16838;DHT22;19510;54.486;9.046;2023-02-26T16:16:05;6.30;99.90
16838;DHT22;19510;54.486;9.046;2023-02-26T16:18:35;6.10;99.90
16838;DHT22;19510;54.486;9.046;2023-02-26T16:21:02;6.10;99.90
16838;DHT22;19510;54.486;9.046;2023-02-26T16:23:38;6.10;99.90
16838;DHT22;19510;54.486;9.046;2023-02-26T16:26:08;6.00;99.90
16838;DHT22;19510;54.486;9.046;2023-02-26T16:28:40;6.00;99.90
16838;DHT22;19510;54.486;9.046;2023-02-26T16:31:19;5.90;99.90
16838;DHT22;19510;54.486;9.046;2023-02-26T16:34:19;5.80;99.90
16838;DHT22;19510;54.486;9.046;2023-02-26T16:36:46;5.80;99.90
16838;DHT22;19510;54.486;9.046;2023-02-26T16:39:22;5.70;99.90
16838;DHT22;19510;54.486;9.046;2023-02-26T16:42:18;5.70;99.90
16838;DHT22;19510;54.486;9.046;2023-02-26T16:48:21;5.60;99.90
16838;DHT22;19510;54.486;9.046;2023-02-26T16:51:00;5.50;99.90
16838;DHT22;19510;54.486;9.046;2023-02-26T16:53:54;5.40;99.90
16838;DHT22;19510;54.486;9.046;2023-02-26T16:56:28;5.40;99.90
16838;DHT22;19510;54.486;9.046;2023-02-26T17:02:23;5.30;99.90
16838;DHT22;19510;54.486;9.046;2023-02-26T17:04:33;5.20;99.90
16838;DHT22;19510;54.486;9.046;2023-02-26T17:07:01;5.20;99.90
16838;DHT22;19510;54.486;9.046;2023-02-26T17:09:43;5.20;99.90
16838;DHT22;19510;54.486;9.046;2023-02-26T17:12:20;5.10;99.90
16838;DHT22;19510;54.486;9.046;2023-02-26T17:14:52;5.10;99.90
16838;DHT22;19510;54.486;9.046;2023-02-26T17:17:22;5.00;99.90
16838;DHT22;19510;54.486;9.046;2023-02-26T17:19:48;5.00;99.90
16838;DHT22;19510;54.486;9.046;2023-02-26T17:22:16;4.90;99.90
16838;DHT22;19510;54.486;9.046;2023-02-26T17:24:44;4.90;99.90
16838;DHT22;19510;54.486;9.046;2023-02-26T17:27:17;4.80;99.90
16838;DHT22;19510;54.486;9.046;2023-02-26T17:29:48;4.80;99.90
16838;DHT22;19510;54.486;9.046;2023-02-26T17:32:23;4.70;99.90
16838;DHT22;19510;54.486;9.046;2023-02-26T17:34:51;4.60;99.90
16838;DHT22;19510;54.486;9.046;2023-02-26T17:37:18;4.50;99.90
16838;DHT22;19510;54.486;9.046;2023-02-26T17:39:49;4.50;99.90
16838;DHT22;19510;54.486;9.046;2023-02-26T17:42:17;4.40;99.90
16838;DHT22;19510;54.486;9.046;2023-02-26T17:44:47;4.30;99.90
16838;DHT22;19510;54.486;9.046;2023-02-26T17:47:20;4.30;99.90
16838;DHT22;19510;54.486;9.046;2023-02-26T17:49:47;4.30;99.90
16838;DHT22;19510;54.486;9.046;2023-02-26T17:52:15;4.20;99.90
16838;DHT22;19510;54.486;9.046;2023-02-26T17:54:41;4.10;99.90
16838;DHT22;19510;54.486;9.046;2023-02-26T17:57:17;4.00;99.90
16838;DHT22;19510;54.486;9.046;2023-02-26T17:59:44;4.00;99.90
16838;DHT22;19510;54.486;9.046;2023-02-26T18:02:21;4.00;99.90
16838;DHT22;19510;54.486;9.046;2023-02-26T18:04:48;4.00;99.90
16838;DHT22;19510;54.486;9.046;2023-02-26T18:07:15;4.00;99.90
16838;DHT22;19510;54.486;9.046;2023-02-26T18:09:45;3.90;99.90
16838;DHT22;19510;54.486;9.046;2023-02-26T18:12:19;3.80;99.90
16838;DHT22;19510;54.486;9.046;2023-02-26T18:14:48;3.80;99.90
16838;DHT22;19510;54.486;9.046;2023-02-26T18:17:25;3.70;99.90
16838;DHT22;19510;54.486;9.046;2023-02-26T18:19:51;3.70;99.90
16838;DHT22;19510;54.486;9.046;2023-02-26T18:22:20;3.60;99.90
16838;DHT22;19510;54.486;9.046;2023-02-26T18:24:50;3.60;99.90
16838;DHT22;19510;54.486;9.046;2023-02-26T18:27:21;3.60;99.90
16838;DHT22;19510;54.486;9.046;2023-02-26T18:29:50;3.50;99.90
16838;DHT22;19510;54.486;9.046;2023-02-26T18:32:18;3.50;99.90
16838;DHT22;19510;54.486;9.046;2023-02-26T18:34:44;3.50;99.90
16838;DHT22;19510;54.486;9.046;2023-02-26T18:37:15;3.40;99.90
16838;DHT22;19510;54.486;9.046;2023-02-26T18:39:42;3.30;99.90
16838;DHT22;19510;54.486;9.046;2023-02-26T18:42:22;3.30;99.90
16838;DHT22;19510;54.486;9.046;2023-02-26T18:44:57;3.20;99.90
16838;DHT22;19510;54.486;9.046;2023-02-26T18:47:25;3.20;99.90
16838;DHT22;19510;54.486;9.046;2023-02-26T18:49:50;3.20;99.90
16838;DHT22;19510;54.486;9.046;2023-02-26T18:52:17;3.10;99.90
16838;DHT22;19510;54.486;9.046;2023-02-26T18:54:42;3.10;99.90
16838;DHT22;19510;54.486;9.046;2023-02-26T18:57:09;3.10;99.90
16838;DHT22;19510;54.486;9.046;2023-02-26T18:59:36;3.10;99.90
16838;DHT22;19510;54.486;9.046;2023-02-26T19:02:03;3.10;99.90
16838;DHT22;19510;54.486;9.046;2023-02-26T19:04:31;3.00;99.90
16838;DHT22;19510;54.486;9.046;2023-02-26T19:06:59;3.00;99.90
16838;DHT22;19510;54.486;9.046;2023-02-26T19:09:25;2.90;99.90
16838;DHT22;19510;54.486;9.046;2023-02-26T19:11:58;2.90;99.90
16838;DHT22;19510;54.486;9.046;2023-02-26T19:14:31;2.90;99.90
16838;DHT22;19510;54.486;9.046;2023-02-26T19:17:00;2.90;99.90
16838;DHT22;19510;54.486;9.046;2023-02-26T19:19:26;2.80;99.90
16838;DHT22;19510;54.486;9.046;2023-02-26T19:21:53;2.80;99.90
16838;DHT22;19510;54.486;9.046;2023-02-26T19:24:18;2.80;99.90
16838;DHT22;19510;54.486;9.046;2023-02-26T19:26:47;2.70;99.90
16838;DHT22;19510;54.486;9.046;2023-02-26T19:29:16;2.70;99.90
16838;DHT22;19510;54.486;9.046;2023-02-26T19:31:45;2.70;99.90
16838;DHT22;19510;54.486;9.046;2023-02-26T19:34:11;2.60;99.90
16838;DHT22;19510;54.486;9.046;2023-02-26T19:36:39;2.60;99.90
16838;DHT22;19510;54.486;9.046;2023-02-26T19:39:08;2.50;99.90
16838;DHT22;19510;54.486;9.046;2023-02-26T19:41:36;2.60;99.90
16838;DHT22;19510;54.486;9.046;2023-02-26T19:44:01;2.50;99.90
16838;DHT22;19510;54.486;9.046;2023-02-26T19:46:27;2.50;99.90
16838;DHT22;19510;54.486;9.046;2023-02-26T19:48:53;2.40;99.90
16838;DHT22;19510;54.486;9.046;2023-02-26T19:51:19;2.40;99.90
16838;DHT22;19510;54.486;9.046;2023-02-26T19:53:44;2.40;99.90
16838;DHT22;19510;54.486;9.046;2023-02-26T19:56:11;2.40;99.90
16838;DHT22;19510;54.486;9.046;2023-02-26T19:58:37;2.40;99.90
16838;DHT22;19510;54.486;9.046;2023-02-26T20:01:05;2.40;99.90
16838;DHT22;19510;54.486;9.046;2023-02-26T20:03:32;2.40;99.90
16838;DHT22;19510;54.486;9.046;2023-02-26T20:06:00;2.50;99.90
16838;DHT22;19510;54.486;9.046;2023-02-26T20:08:27;2.40;99.90
16838;DHT22;19510;54.486;9.046;2023-02-26T20:10:55;2.40;99.90
16838;DHT22;19510;54.486;9.046;2023-02-26T20:13:24;2.30;99.90
16838;DHT22;19510;54.486;9.046;2023-02-26T20:15:57;2.30;99.90
16838;DHT22;19510;54.486;9.046;2023-02-26T20:18:24;2.20;99.90
16838;DHT22;19510;54.486;9.046;2023-02-26T20:20:53;2.20;99.90
16838;DHT22;19510;54.486;9.046;2023-02-26T20:23:19;2.10;99.90
16838;DHT22;19510;54.486;9.046;2023-02-26T20:25:45;2.10;99.90
16838;DHT22;19510;54.486;9.046;2023-02-26T20:28:15;2.20;99.90
16838;DHT22;19510;54.486;9.046;2023-02-26T20:30:41;2.20;99.90
16838;DHT22;19510;54.486;9.046;2023-02-26T20:33:07;2.10;99.90
16838;DHT22;19510;54.486;9.046;2023-02-26T20:35:33;2.10;99.90
16838;DHT22;19510;54.486;9.046;2023-02-26T20:37:58;2.10;99.90
16838;DHT22;19510;54.486;9.046;2023-02-26T20:40:24;2.10;99.90
16838;DHT22;19510;54.486;9.046;2023-02-26T20:42:52;2.20;99.90
16838;DHT22;19510;54.486;9.046;2023-02-26T20:45:18;2.10;99.90
16838;DHT22;19510;54.486;9.046;2023-02-26T20:47:46;2.10;99.90
16838;DHT22;19510;54.486;9.046;2023-02-26T20:50:12;2.00;99.90
16838;DHT22;19510;54.486;9.046;2023-02-26T20:52:37;2.00;99.90
16838;DHT22;19510;54.486;9.046;2023-02-26T20:55:04;2.00;99.90
16838;DHT22;19510;54.486;9.046;2023-02-26T20:57:32;2.00;99.90
16838;DHT22;19510;54.486;9.046;2023-02-26T20:59:59;2.00;99.90
16838;DHT22;19510;54.486;9.046;2023-02-26T21:02:33;1.90;99.90
16838;DHT22;19510;54.486;9.046;2023-02-26T21:05:04;1.90;99.90
16838;DHT22;19510;54.486;9.046;2023-02-26T21:07:30;1.90;99.90
16838;DHT22;19510;54.486;9.046;2023-02-26T21:09:59;1.90;99.90
16838;DHT22;19510;54.486;9.046;2023-02-26T21:12:26;1.90;99.90
16838;DHT22;19510;54.486;9.046;2023-02-26T21:14:53;1.90;99.90
16838;DHT22;19510;54.486;9.046;2023-02-26T21:17:21;1.90;99.90
16838;DHT22;19510;54.486;9.046;2023-02-26T21:19:47;1.80;99.90
16838;DHT22;19510;54.486;9.046;2023-02-26T21:22:13;1.80;99.90
16838;DHT22;19510;54.486;9.046;2023-02-26T21:24:39;1.80;99.90
16838;DHT22;19510;54.486;9.046;2023-02-26T21:27:05;1.80;99.90
16838;DHT22;19510;54.486;9.046;2023-02-26T21:29:31;1.80;99.90
16838;DHT22;19510;54.486;9.046;2023-02-26T21:31:56;1.80;99.90
16838;DHT22;19510;54.486;9.046;2023-02-26T21:34:29;1.80;99.90
16838;DHT22;19510;54.486;9.046;2023-02-26T21:37:02;1.80;99.90
16838;DHT22;19510;54.486;9.046;2023-02-26T21:39:31;1.70;99.90
16838;DHT22;19510;54.486;9.046;2023-02-26T21:42:01;1.70;99.90
16838;DHT22;19510;54.486;9.046;2023-02-26T21:44:31;1.70;99.90
16838;DHT22;19510;54.486;9.046;2023-02-26T21:47:01;1.70;99.90
16838;DHT22;19510;54.486;9.046;2023-02-26T21:49:28;1.60;99.90
16838;DHT22;19510;54.486;9.046;2023-02-26T21:52:02;1.60;99.90
16838;DHT22;19510;54.486;9.046;2023-02-26T21:54:29;1.70;99.90
16838;DHT22;19510;54.486;9.046;2023-02-26T21:56:54;1.70;99.90
16838;DHT22;19510;54.486;9.046;2023-02-26T21:59:23;1.60;99.90
16838;DHT22;19510;54.486;9.046;2023-02-26T22:01:49;1.60;99.90
16838;DHT22;19510;54.486;9.046;2023-02-26T22:04:16;1.60;99.90
16838;DHT22;19510;54.486;9.046;2023-02-26T22:06:42;1.50;99.90
16838;DHT22;19510;54.486;9.046;2023-02-26T22:09:08;1.50;99.90
16838;DHT22;19510;54.486;9.046;2023-02-26T22:11:34;1.50;99.90
16838;DHT22;19510;54.486;9.046;2023-02-26T22:13:59;1.50;99.90
16838;DHT22;19510;54.486;9.046;2023-02-26T22:16:25;1.50;99.90
16838;DHT22;19510;54.486;9.046;2023-02-26T22:18:51;1.50;99.90
16838;DHT22;19510;54.486;9.046;2023-02-26T22:21:17;1.50;99.90
16838;DHT22;19510;54.486;9.046;2023-02-26T22:23:43;1.50;99.90
16838;DHT22;19510;54.486;9.046;2023-02-26T22:26:08;1.40;99.90
16838;DHT22;19510;54.486;9.046;2023-02-26T22:28:34;1.40;99.90
16838;DHT22;19510;54.486;9.046;2023-02-26T22:31:02;1.40;99.90
16838;DHT22;19510;54.486;9.046;2023-02-26T22:33:28;1.40;99.90
16838;DHT22;19510;54.486;9.046;2023-02-26T22:35:55;1.40;99.90
16838;DHT22;19510;54.486;9.046;2023-02-26T22:38:21;1.40;99.90
16838;DHT22;19510;54.486;9.046;2023-02-26T22:40:49;1.40;99.90
16838;DHT22;19510;54.486;9.046;2023-02-26T22:43:15;1.40;99.90
16838;DHT22;19510;54.486;9.046;2023-02-26T22:45:41;1.40;99.90
16838;DHT22;19510;54.486;9.046;2023-02-26T22:48:07;1.40;99.90
16838;DHT22;19510;54.486;9.046;2023-02-26T22:50:33;1.40;99.90
16838;DHT22;19510;54.486;9.046;2023-02-26T22:53:00;1.30;99.90
16838;DHT22;19510;54.486;9.046;2023-02-26T22:55:27;1.30;99.90
16838;DHT22;19510;54.486;9.046;2023-02-26T22:57:53;1.30;99.90
16838;DHT22;19510;54.486;9.046;2023-02-26T23:00:22;1.30;99.90
16838;DHT22;19510;54.486;9.046;2023-02-26T23:02:48;1.20;99.90
16838;DHT22;19510;54.486;9.046;2023-02-26T23:05:15;1.20;99.90
16838;DHT22;19510;54.486;9.046;2023-02-26T23:07:42;1.30;99.90
16838;DHT22;19510;54.486;9.046;2023-02-26T23:10:10;1.30;99.90
16838;DHT22;19510;54.486;9.046;2023-02-26T23:12:36;1.30;99.90
16838;DHT22;19510;54.486;9.046;2023-02-26T23:15:05;1.30;99.90
16838;DHT22;19510;54.486;9.046;2023-02-26T23:17:32;1.30;99.90
16838;DHT22;19510;54.486;9.046;2023-02-26T23:19:58;1.40;99.90
16838;DHT22;19510;54.486;9.046;2023-02-26T23:22:23;1.40;99.90
16838;DHT22;19510;54.486;9.046;2023-02-26T23:24:52;1.40;99.90
16838;DHT22;19510;54.486;9.046;2023-02-26T23:27:18;1.40;99.90
16838;DHT22;19510;54.486;9.046;2023-02-26T23:29:44;1.40;99.90
16838;DHT22;19510;54.486;9.046;2023-02-26T23:32:10;1.40;99.90
16838;DHT22;19510;54.486;9.046;2023-02-26T23:34:39;1.40;99.90
16838;DHT22;19510;54.486;9.046;2023-02-26T23:37:05;1.40;99.90
16838;DHT22;19510;54.486;9.046;2023-02-26T23:39:33;1.40;99.90
16838;DHT22;19510;54.486;9.046;2023-02-26T23:41:59;1.40;99.90
16838;DHT22;19510;54.486;9.046;2023-02-26T23:44:27;1.40;99.90
16838;DHT22;19510;54.486;9.046;2023-02-26T23:46:55;1.40;99.90
16838;DHT22;19510;54.486;9.046;2023-02-26T23:49:20;1.40;99.90
16838;DHT22;19510;54.486;9.046;2023-02-26T23:51:46;1.40;99.90
16838;DHT22;19510;54.486;9.046;2023-02-26T23:54:12;1.40;99.90
16838;DHT22;19510;54.486;9.046;2023-02-26T23:56:39;1.30;99.90
16838;DHT22;19510;54.486;9.046;2023-02-26T23:59:07;1.30;99.90
